AirNav   Everest Fuels
 
 1085 users online  

07LA Richmond Plantation Airport
Forest Hill, Louisiana, USA

GOING TO FOREST HILL?


FAA INFORMATION EFFECTIVE 10 SEPTEMBER 2020

Location

FAA Identifier: 07LA
Lat/Long: 31-03-10.8000N 092-37-58.3500W
31-03.180000N 092-37.972500W
31.0530000,-92.6328750
(estimated)
Elevation: 150 ft. / 46 m (estimated)
From city: 5 miles NW of FOREST HILL, LA
Time zone: UTC -5 (UTC -6 during Standard Time)
Zip code: 71433

Airport Operations

Airport use: Private use. Permission required prior to landing
Activation date: 12/2017
Control tower: no
ARTCC: HOUSTON CENTER
FSS: DE RIDDER FLIGHT SERVICE STATION
Attendance: IRREGULAR
Wind indicator: yes
Segmented circle: no

Airport Communications

WX ASOS at AEX (17 nm N): 123.975 (318-442-6583)
WX AWOS-3PT at ACP (18 nm S): 118.275 (318-215-9728)

Nearby radio navigation aids

VOR radial/distance  VOR name  Freq  Var
AEXr206/14.0ALEXANDRIA VORTAC116.1003E
FXUr095/(30.3)POLK VOR108.4002E

 
NDB name  Hdg/Dist  Freq  Var  ID
GATOR085/28.435902EGUV --. ..- ...-
DURALDE340/31.126302EECY . -.-. -.--

Airport Services

Runway Information

Runway 11/29

Dimensions: 2339 x 125 ft. / 713 x 38 m
Surface: turf, in fair condition
RUNWAY 11  RUNWAY 29
Latitude: 31-03.236667N31-03.123333N
Longitude: 092-38.186667W092-37.758333W
Traffic pattern: leftleft
Obstructions: 60 ft. tree60 ft. tree, 300 ft. from runway

Airport Ownership and Management from official FAA records

Ownership: Privately-owned
Owner: PATRICK RICHMOND
29 WINEGEART RD
GLENMORA, LA 71433
Phone 3773443732
Manager: PATRICK RICHMOND
29 WINEGEART RD
GLENMORA, LA 71443
Phone 3773443732

Airport Operational Statistics

Aircraft based on the field: 2
Single engine airplanes: 1
Ultralights: 1
    

Additional Remarks

PRIVATE AIRPORT - USE PERMITTED WITH PERMISSION FROM OWNER ONLY. LOW PASSES ALLOWED. WATCH FOR HORSES ON RUNWAY. NON-MAULE AIRCRAFT NOT RECOMMENDED UNLESS PILOT SKILL LEVEL IS SUFFICIENT.
FOR CD CTC POLK APCH AT 337-531-2352.

Instrument Procedures

There are no published instrument procedures at 07LA.

Some nearby airports with instrument procedures:

KAEX - Alexandria International Airport (17 nm N)
KACP - Allen Parish Airport (18 nm S)
2R6 - Bunkie Municipal Airport (21 nm E)
KESF - Esler Regional Airport (27 nm NE)
KPOE - Polk Army Airfield (29 nm W)
 
Loc | Ops | Rwys | IFR | FBO | Links
Com | Nav | Svcs | Stats | Notes
Aerial photo
No photo
 
Airport distance calculator
Flying to Richmond Plantation Airport? Find the distance to fly.

From to 07LA

Sunrise and sunset
Times for 22-Sep-2020
 Local
(UTC-5)
 Zulu
(UTC)
Morning civil twilight06:3611:36
Sunrise07:0012:00
Sunset19:0500:05
Evening civil twilight19:3000:30

Current date and time
Zulu (UTC)  22-Sep-2020 12:28:15
Local (UTC-5)  22-Sep-2020 07:28:15
 
METAR
KBKB 
14nm W 
221154Z AUTO VRB04KT 10SM FEW009 BKN014 OVC030 20/18 A2999 RMK AO2 SLP183 60001 7//// T02000183 10206 20194 56001
KAEX 
17nm N 
221153Z 08008KT 10SM OVC016 20/17 A3002 RMK AO2 SLP168 60000 T02000167 10211 20200 56000
KACP 
18nm S 
221215Z AUTO 06003KT 10SM OVC015 20/18 A3001 RMK AO2
KPOE 
19nm W 
221213Z AUTO 07006KT 9SM OVC010 20/19 A3003 RMK AO2 SLP169
KESF 
27nm NE 
221153Z AUTO 09005KT 10SM OVC018 20/17 A3004 RMK AO2 SLP173 T02000167 10206 20200 53001
TAF
KAEX 
17nm N 
221205Z 2212/2312 09012G18KT P6SM VCSH SCT008 OVC015 FM221400 09012G18KT 6SM -SHRA VCTS SCT004 OVC008CB FM221800 09012G18KT 5SM -SHRA VCTS SCT004 OVC008CB
KPOE 
19nm W 
220800Z 2208/2314 09009KT 9999 OVC008 QNH2999INS BECMG 2211/2212 09012G18KT 8000 -SHRA OVC007 QNH2991INS BECMG 2308/2309 03015G20KT 8000 -SHRA OVC007 QNH2986INS TX22/2217Z TN19/2210Z
NOTAMs
Click for the latest NOTAMs
NOTAMs are issued by the DoD/FAA and will open in a separate window not controlled by AirNav.

 

 
 

Would you like to see your business listed on this page?

 If your business provides an interesting product or service to pilots, flight crews, aircraft, or users of the Richmond Plantation Airport, you should consider listing it here.  To start the listing process, click on the button below
 
Add a business
 

Other Pages about Richmond Plantation Airport

Update a link
 
Copyright © AirNav, LLC. All rights reserved. Privacy Policy  Contact